Time;durP1;ratioP1;P1;durP2;ratioP2;P2;SDS_P1;SDS_P2;PMS_P1;PMS_P2;Temp;Humidity;BMP_temperature;BMP_pressure;BME280_temperature;BME280_humidity;BME280_pressure;Samples;Min_cycle;Max_cycle;Signal;HPM_P1;HPM_P2
2024/01/28 00:00:45;;;;;;;13.73;9.87;;;6.70;99.90;;;;;;4994100;28;20444;-69
2024/01/28 00:03:11;;;;;;;20.93;10.17;;;6.60;99.90;;;;;;5002300;28;20232;-69
2024/01/28 00:05:36;;;;;;;14.83;10.70;;;6.60;99.90;;;;;;4996219;28;20428;-69
2024/01/28 00:08:06;;;;;;;14.03;10.30;;;6.50;99.90;;;;;;4999270;28;20442;-69
2024/01/28 00:10:32;;;;;;;18.23;10.60;;;6.50;99.90;;;;;;5003180;28;20201;-68
2024/01/28 00:13:00;;;;;;;13.10;9.20;;;6.40;99.90;;;;;;5005405;28;21013;-68
2024/01/28 00:15:26;;;;;;;15.57;10.77;;;6.40;99.90;;;;;;5003717;28;20482;-69
2024/01/28 00:17:58;;;;;;;16.10;10.10;;;6.30;99.90;;;;;;5003978;28;20415;-67
2024/01/28 00:20:23;;;;;;;15.93;10.20;;;6.30;99.90;;;;;;4998427;28;20181;-68
2024/01/28 00:22:49;;;;;;;16.33;10.00;;;6.20;99.90;;;;;;5002066;28;20439;-68
2024/01/28 00:25:15;;;;;;;15.00;10.40;;;6.20;99.90;;;;;;4996168;28;20205;-68
2024/01/28 00:27:41;;;;;;;10.50;9.00;;;6.20;99.90;;;;;;5002659;28;20205;-67
2024/01/28 00:30:08;;;;;;;13.33;9.93;;;6.10;99.90;;;;;;5001063;28;20471;-68
2024/01/28 00:32:34;;;;;;;15.83;9.87;;;6.10;99.90;;;;;;5000757;28;20355;-67
2024/01/28 00:35:00;;;;;;;16.47;9.87;;;6.10;99.90;;;;;;5003571;28;20451;-68
2024/01/28 00:37:25;;;;;;;12.43;8.90;;;6.00;99.90;;;;;;4999682;28;20236;-68
2024/01/28 00:39:51;;;;;;;11.00;9.33;;;6.00;99.90;;;;;;5003106;28;20212;-68
2024/01/28 00:42:16;;;;;;;12.13;9.50;;;6.00;99.90;;;;;;5001839;28;20189;-67
2024/01/28 00:44:42;;;;;;;14.13;9.77;;;6.00;99.90;;;;;;5004436;28;20201;-68
2024/01/28 00:47:07;;;;;;;15.10;10.43;;;5.90;99.90;;;;;;4995640;28;20192;-68
2024/01/28 00:49:33;;;;;;;14.63;9.20;;;5.90;99.90;;;;;;5004316;28;20720;-68
2024/01/28 00:51:59;;;;;;;18.07;10.00;;;5.90;99.90;;;;;;5002904;28;20571;-68
2024/01/28 00:54:25;;;;;;;14.60;10.60;;;5.90;99.90;;;;;;4998442;28;20288;-68
2024/01/28 00:56:52;;;;;;;15.23;10.03;;;5.80;99.90;;;;;;4997541;28;20431;-68
2024/01/28 00:59:18;;;;;;;16.60;10.40;;;5.80;99.90;;;;;;4994397;28;20427;-68
2024/01/28 01:01:44;;;;;;;15.53;9.77;;;5.80;99.90;;;;;;4997810;28;21107;-68
2024/01/28 01:04:10;;;;;;;17.50;10.17;;;5.80;99.90;;;;;;5001817;28;20447;-68
2024/01/28 01:06:37;;;;;;;16.03;10.43;;;5.80;99.90;;;;;;5000808;28;20190;-68
2024/01/28 01:09:03;;;;;;;16.70;10.97;;;5.70;99.90;;;;;;4998308;28;20196;-68
2024/01/28 01:11:29;;;;;;;15.97;9.23;;;5.70;99.90;;;;;;4993225;28;20476;-68
2024/01/28 01:13:54;;;;;;;19.60;9.70;;;5.70;99.90;;;;;;5000281;28;20463;-68
2024/01/28 01:16:20;;;;;;;15.17;9.23;;;5.70;99.90;;;;;;5014436;28;20186;-68
2024/01/28 01:18:47;;;;;;;14.63;10.50;;;5.60;99.90;;;;;;5000095;28;20188;-69
2024/01/28 01:21:12;;;;;;;18.63;10.30;;;5.60;99.90;;;;;;5001504;28;20200;-68
2024/01/28 01:23:38;;;;;;;13.67;10.07;;;5.60;99.90;;;;;;5000332;28;20801;-68
2024/01/28 01:26:03;;;;;;;15.27;10.30;;;5.50;99.90;;;;;;5000262;28;20618;-68
2024/01/28 01:28:31;;;;;;;16.53;10.33;;;5.50;99.90;;;;;;5002255;28;20188;-68
2024/01/28 01:31:02;;;;;;;17.10;10.80;;;5.50;99.90;;;;;;4997523;28;20201;-68
2024/01/28 01:33:28;;;;;;;18.07;11.13;;;5.50;99.90;;;;;;5001815;28;20475;-68
2024/01/28 01:35:53;;;;;;;14.70;10.07;;;5.40;99.90;;;;;;5001592;28;20420;-68
2024/01/28 01:38:20;;;;;;;15.00;9.67;;;5.40;99.90;;;;;;4997898;28;20188;-68
2024/01/28 01:40:45;;;;;;;20.07;10.03;;;5.40;99.90;;;;;;4997024;28;20185;-68
2024/01/28 01:43:11;;;;;;;13.97;10.00;;;5.40;99.90;;;;;;5004800;28;20951;-69
2024/01/28 01:45:41;;;;;;;13.63;10.23;;;5.30;99.90;;;;;;4997838;28;20186;-68
2024/01/28 01:48:11;;;;;;;16.70;10.27;;;5.30;99.90;;;;;;5003625;28;20709;-68
2024/01/28 01:50:39;;;;;;;17.60;10.53;;;5.30;99.90;;;;;;4997237;28;20524;-68
2024/01/28 01:53:05;;;;;;;13.77;10.03;;;5.30;99.90;;;;;;5000197;28;20421;-68
2024/01/28 01:55:36;;;;;;;15.43;10.90;;;5.20;99.90;;;;;;4997929;28;20464;-68
2024/01/28 01:58:03;;;;;;;15.13;11.50;;;5.20;99.90;;;;;;4996091;28;20428;-68
2024/01/28 02:00:30;;;;;;;15.97;10.37;;;5.20;99.90;;;;;;4994299;28;20482;-68
2024/01/28 02:02:56;;;;;;;15.60;11.57;;;5.20;99.90;;;;;;5002170;28;21014;-68
2024/01/28 02:05:21;;;;;;;13.27;9.70;;;5.10;99.90;;;;;;4989277;28;20543;-68
2024/01/28 02:07:47;;;;;;;13.13;10.00;;;5.10;99.90;;;;;;4999396;28;20193;-68
2024/01/28 02:10:12;;;;;;;13.20;9.60;;;5.10;99.90;;;;;;4998846;28;20563;-68
2024/01/28 02:12:38;;;;;;;14.73;9.90;;;5.10;99.90;;;;;;4997393;28;20665;-69
2024/01/28 02:15:06;;;;;;;17.77;10.10;;;5.00;99.90;;;;;;4997535;28;20198;-68
2024/01/28 02:17:32;;;;;;;16.53;10.43;;;5.00;99.90;;;;;;4995545;28;20435;-68
2024/01/28 02:19:58;;;;;;;14.10;9.67;;;5.00;99.90;;;;;;4999309;28;20846;-68
2024/01/28 02:22:23;;;;;;;14.40;9.80;;;5.00;99.90;;;;;;4996355;28;20412;-68
2024/01/28 02:24:53;;;;;;;15.43;8.90;;;4.90;99.90;;;;;;4996181;28;20458;-68
2024/01/28 02:27:19;;;;;;;15.33;10.00;;;4.90;99.90;;;;;;4996875;28;20279;-68
2024/01/28 02:29:45;;;;;;;14.57;9.90;;;4.90;99.90;;;;;;5000474;28;20531;-68
2024/01/28 02:32:13;;;;;;;15.80;9.37;;;4.90;99.90;;;;;;4999750;28;20205;-68
2024/01/28 02:34:39;;;;;;;14.67;10.10;;;4.90;99.90;;;;;;4993211;28;20541;-69
2024/01/28 02:37:05;;;;;;;15.10;10.20;;;4.80;99.90;;;;;;4997366;28;20427;-69
2024/01/28 02:39:30;;;;;;;13.10;10.07;;;4.70;99.90;;;;;;4991652;28;20204;-68
2024/01/28 02:41:56;;;;;;;13.00;9.00;;;4.70;99.90;;;;;;4996575;28;20182;-69
2024/01/28 02:44:22;;;;;;;14.30;9.07;;;4.70;99.90;;;;;;4998743;28;20203;-69
2024/01/28 02:46:47;;;;;;;11.67;9.17;;;4.70;99.90;;;;;;4997244;28;20181;-69
2024/01/28 02:49:13;;;;;;;15.60;9.20;;;4.70;99.90;;;;;;5001293;28;20594;-68
2024/01/28 02:51:38;;;;;;;12.23;9.27;;;4.60;99.90;;;;;;4995351;28;20633;-68
2024/01/28 02:54:04;;;;;;;13.37;9.87;;;4.60;99.90;;;;;;4998611;28;20282;-68
2024/01/28 02:56:29;;;;;;;13.80;8.70;;;4.60;99.90;;;;;;4992001;28;20297;-69
2024/01/28 02:58:55;;;;;;;14.50;9.07;;;4.60;99.90;;;;;;4996519;28;20279;-68
2024/01/28 03:01:21;;;;;;;12.17;9.13;;;4.60;99.90;;;;;;4996623;28;20181;-68
2024/01/28 03:03:46;;;;;;;11.63;8.80;;;4.50;99.90;;;;;;5008411;28;20869;-68
2024/01/28 03:06:12;;;;;;;20.40;9.37;;;4.50;99.90;;;;;;4995686;28;20436;-68
2024/01/28 03:08:37;;;;;;;12.50;9.33;;;4.60;99.90;;;;;;4997997;28;20281;-68
2024/01/28 03:11:03;;;;;;;15.40;9.53;;;4.50;99.90;;;;;;5007306;28;20238;-68
2024/01/28 03:13:29;;;;;;;15.07;9.90;;;4.50;99.90;;;;;;5002556;28;20201;-68
2024/01/28 03:15:55;;;;;;;12.43;8.70;;;4.50;99.90;;;;;;4998757;28;20173;-68
2024/01/28 03:18:21;;;;;;;12.67;8.33;;;4.50;99.90;;;;;;4998870;28;20184;-68
2024/01/28 03:20:47;;;;;;;12.60;9.50;;;4.40;99.90;;;;;;4995792;28;20185;-68
2024/01/28 03:23:14;;;;;;;10.33;8.10;;;4.40;99.90;;;;;;4999319;28;20444;-68
2024/01/28 03:25:40;;;;;;;14.40;8.63;;;4.40;99.90;;;;;;4997898;28;20432;-68
2024/01/28 03:28:06;;;;;;;15.40;9.17;;;4.40;99.90;;;;;;4999849;28;20427;-68
2024/01/28 03:30:32;;;;;;;13.77;9.03;;;4.40;99.90;;;;;;4996359;28;20569;-69
2024/01/28 03:33:00;;;;;;;17.97;10.77;;;4.40;99.90;;;;;;5001395;28;20405;-68
2024/01/28 03:35:26;;;;;;;15.83;9.07;;;4.40;99.90;;;;;;4997995;28;20292;-68
2024/01/28 03:37:51;;;;;;;12.60;8.60;;;4.40;99.90;;;;;;4999203;28;20471;-68
2024/01/28 03:40:17;;;;;;;9.93;8.20;;;4.40;99.90;;;;;;4999469;28;20431;-68
2024/01/28 03:42:43;;;;;;;12.40;8.47;;;4.40;99.90;;;;;;5005238;28;20323;-68
2024/01/28 03:45:09;;;;;;;17.27;8.97;;;4.40;99.90;;;;;;5000378;28;20809;-69
2024/01/28 03:47:36;;;;;;;12.17;8.93;;;4.40;99.90;;;;;;4996875;28;20225;-68
2024/01/28 03:50:05;;;;;;;14.47;8.47;;;4.40;99.90;;;;;;4996271;28;20554;-68
2024/01/28 03:52:31;;;;;;;15.77;9.40;;;4.40;99.90;;;;;;4990385;28;20472;-68
2024/01/28 03:54:57;;;;;;;17.53;9.03;;;4.30;99.90;;;;;;4992518;28;20516;-68
2024/01/28 03:57:23;;;;;;;15.50;9.80;;;4.30;99.90;;;;;;4996021;28;20542;-69
2024/01/28 03:59:48;;;;;;;13.07;9.07;;;4.30;99.90;;;;;;4999952;28;20179;-68
2024/01/28 04:02:15;;;;;;;11.77;9.10;;;4.30;99.90;;;;;;5000644;28;20272;-68
2024/01/28 04:04:41;;;;;;;13.90;9.10;;;4.30;99.90;;;;;;4992944;28;20205;-69
2024/01/28 04:07:06;;;;;;;11.27;7.70;;;4.30;99.90;;;;;;4998874;28;20439;-69
2024/01/28 04:09:33;;;;;;;18.53;8.30;;;4.30;99.90;;;;;;4996510;28;20535;-68
2024/01/28 04:12:01;;;;;;;13.13;7.80;;;4.30;99.90;;;;;;4994601;28;20664;-69
2024/01/28 04:14:26;;;;;;;9.77;7.63;;;4.30;99.90;;;;;;4993684;28;21000;-68
2024/01/28 04:16:52;;;;;;;12.10;9.10;;;4.20;99.90;;;;;;5000620;28;20458;-68
2024/01/28 04:19:17;;;;;;;13.17;9.43;;;4.20;99.90;;;;;;4997320;28;20188;-69
2024/01/28 04:21:43;;;;;;;13.00;8.43;;;4.20;99.90;;;;;;5007076;28;20182;-68
2024/01/28 04:24:08;;;;;;;18.03;8.23;;;4.20;99.90;;;;;;4996651;28;20267;-69
2024/01/28 04:26:34;;;;;;;17.80;10.00;;;4.20;99.90;;;;;;5001266;28;20687;-68
2024/01/28 04:29:00;;;;;;;13.87;8.13;;;4.10;99.90;;;;;;4997650;28;20556;-68
2024/01/28 04:31:26;;;;;;;15.43;8.73;;;4.10;99.90;;;;;;4997738;28;20213;-68
2024/01/28 04:33:55;;;;;;;10.40;8.20;;;4.10;99.90;;;;;;4995135;28;20193;-68
2024/01/28 04:36:21;;;;;;;12.20;8.40;;;4.10;99.90;;;;;;4996306;28;20427;-68
2024/01/28 04:38:47;;;;;;;19.17;8.73;;;4.10;99.90;;;;;;4995959;28;20531;-68
2024/01/28 04:41:13;;;;;;;14.17;8.50;;;4.00;99.90;;;;;;4995205;28;20193;-68
2024/01/28 04:43:39;;;;;;;12.70;8.87;;;4.00;99.90;;;;;;4998621;28;21800;-68
2024/01/28 04:46:04;;;;;;;16.27;8.33;;;4.00;99.90;;;;;;4997681;28;20428;-68
2024/01/28 04:48:30;;;;;;;12.10;8.23;;;3.90;99.90;;;;;;5014585;28;20203;-68
2024/01/28 04:50:55;;;;;;;13.50;8.50;;;3.90;99.90;;;;;;4998564;28;20256;-68
2024/01/28 04:53:22;;;;;;;11.20;8.10;;;3.90;99.90;;;;;;5001676;28;20208;-68
2024/01/28 04:55:47;;;;;;;11.77;8.30;;;3.80;99.90;;;;;;4996422;28;20548;-68
2024/01/28 04:58:13;;;;;;;12.23;8.17;;;3.80;99.90;;;;;;4999637;28;20546;-68
2024/01/28 05:00:39;;;;;;;12.13;8.73;;;3.80;99.90;;;;;;4998052;28;20264;-68
2024/01/28 05:03:05;;;;;;;13.90;8.47;;;3.80;99.90;;;;;;4995932;28;20852;-68
2024/01/28 05:05:30;;;;;;;12.03;8.70;;;3.80;99.90;;;;;;5001476;28;20192;-68
2024/01/28 05:07:56;;;;;;;10.13;7.00;;;3.80;99.90;;;;;;4998407;28;20197;-68
2024/01/28 05:10:21;;;;;;;12.57;9.13;;;3.70;99.90;;;;;;5002846;28;20173;-68
2024/01/28 05:12:48;;;;;;;16.70;8.67;;;3.70;99.90;;;;;;4996231;28;20253;-68
2024/01/28 05:15:17;;;;;;;12.37;8.53;;;3.80;99.90;;;;;;4999097;28;22284;-68
2024/01/28 05:17:44;;;;;;;14.20;9.17;;;3.80;99.90;;;;;;4999881;28;20448;-68
2024/01/28 05:20:11;;;;;;;11.00;7.67;;;3.80;99.90;;;;;;4999355;28;20436;-68
2024/01/28 05:22:40;;;;;;;15.27;8.40;;;3.80;99.90;;;;;;4992502;28;20435;-68
2024/01/28 05:25:06;;;;;;;10.37;7.63;;;3.80;99.90;;;;;;5001715;28;20475;-68
2024/01/28 05:27:32;;;;;;;10.90;7.57;;;3.70;99.90;;;;;;4999652;28;21751;-68
2024/01/28 05:29:58;;;;;;;14.27;8.40;;;3.80;99.90;;;;;;5004978;28;20469;-68
2024/01/28 05:32:28;;;;;;;14.37;8.97;;;3.70;99.90;;;;;;4997805;28;20466;-68
2024/01/28 05:34:56;;;;;;;10.93;8.20;;;3.70;99.90;;;;;;4992984;28;20480;-69
2024/01/28 05:37:21;;;;;;;17.90;8.37;;;3.80;99.90;;;;;;4999980;28;20416;-68
2024/01/28 05:39:47;;;;;;;12.23;8.50;;;3.80;99.90;;;;;;4992922;28;20416;-68
2024/01/28 05:42:13;;;;;;;11.03;8.87;;;3.70;99.90;;;;;;5001800;28;20189;-68
2024/01/28 05:44:38;;;;;;;12.77;8.50;;;3.70;99.90;;;;;;4997474;28;20926;-68
2024/01/28 05:47:04;;;;;;;14.57;7.90;;;3.80;99.90;;;;;;4993976;28;20201;-68
2024/01/28 05:49:30;;;;;;;16.90;8.30;;;3.70;99.90;;;;;;4995671;28;20527;-68
2024/01/28 05:51:55;;;;;;;12.03;8.77;;;3.70;99.90;;;;;;4995492;28;20200;-68
2024/01/28 05:54:21;;;;;;;14.63;8.50;;;3.80;99.90;;;;;;4994561;28;20200;-68
2024/01/28 05:56:47;;;;;;;14.13;8.07;;;3.80;99.90;;;;;;4994966;28;20181;-68
2024/01/28 05:59:13;;;;;;;11.93;8.53;;;3.80;99.90;;;;;;5000348;28;20186;-68
2024/01/28 06:01:38;;;;;;;13.40;7.40;;;3.80;99.90;;;;;;4997376;28;20436;-68
2024/01/28 06:04:05;;;;;;;11.87;7.50;;;3.80;99.90;;;;;;5003440;28;20205;-68
2024/01/28 06:06:30;;;;;;;11.07;7.63;;;3.80;99.90;;;;;;4997844;28;20192;-68
2024/01/28 06:08:56;;;;;;;10.10;8.10;;;3.80;99.90;;;;;;4996981;28;20436;-68
2024/01/28 06:11:22;;;;;;;11.90;7.90;;;3.80;99.90;;;;;;4994574;28;20512;-68
2024/01/28 06:13:48;;;;;;;13.70;8.00;;;3.90;99.90;;;;;;5000898;28;20533;-68
2024/01/28 06:16:13;;;;;;;10.53;7.87;;;3.80;99.90;;;;;;4994622;28;20185;-68
2024/01/28 06:18:43;;;;;;;14.43;8.00;;;3.80;99.90;;;;;;4994918;28;20262;-68
2024/01/28 06:21:10;;;;;;;11.20;7.77;;;3.80;99.90;;;;;;4998179;28;20181;-68
2024/01/28 06:23:36;;;;;;;13.23;8.10;;;3.80;99.90;;;;;;4996968;28;21045;-68
2024/01/28 06:26:01;;;;;;;10.63;8.30;;;3.80;99.90;;;;;;4996909;28;20454;-68
2024/01/28 06:28:27;;;;;;;12.23;8.23;;;3.70;99.90;;;;;;5000197;28;20420;-68
2024/01/28 06:30:52;;;;;;;12.80;8.57;;;3.70;99.90;;;;;;5000135;28;20249;-68
2024/01/28 06:33:18;;;;;;;13.20;8.50;;;3.70;99.90;;;;;;5002278;28;20227;-68
2024/01/28 06:35:44;;;;;;;15.00;7.97;;;3.70;99.90;;;;;;4995655;28;20181;-68
2024/01/28 06:38:09;;;;;;;10.80;8.50;;;3.70;99.90;;;;;;4999033;28;20185;-68
2024/01/28 06:40:35;;;;;;;12.03;9.37;;;3.60;99.90;;;;;;5000820;28;20660;-68
2024/01/28 06:43:00;;;;;;;13.03;8.80;;;3.60;99.90;;;;;;5000667;28;20188;-68
2024/01/28 06:45:26;;;;;;;12.70;7.60;;;3.60;99.90;;;;;;4995388;28;20180;-68
2024/01/28 06:47:52;;;;;;;11.40;8.17;;;3.60;99.90;;;;;;5002788;28;20185;-68
2024/01/28 06:50:19;;;;;;;9.53;7.23;;;3.50;99.90;;;;;;4997029;28;20203;-68
2024/01/28 06:52:44;;;;;;;10.27;7.80;;;3.50;99.90;;;;;;4996333;28;20471;-68
2024/01/28 06:55:10;;;;;;;12.97;9.20;;;3.50;99.90;;;;;;4994351;28;20439;-69
2024/01/28 06:57:36;;;;;;;9.73;7.50;;;3.50;99.90;;;;;;4996251;28;20197;-68
2024/01/28 07:00:04;;;;;;;12.60;8.30;;;3.50;99.90;;;;;;4994975;28;20181;-68
2024/01/28 07:02:30;;;;;;;12.07;9.10;;;3.50;99.90;;;;;;4997693;28;20487;-69
2024/01/28 07:04:56;;;;;;;15.60;8.50;;;3.50;99.90;;;;;;4997401;28;20459;-68
2024/01/28 07:07:21;;;;;;;11.83;7.57;;;3.50;99.90;;;;;;4998523;28;20193;-68
2024/01/28 07:09:47;;;;;;;15.20;8.00;;;3.50;99.90;;;;;;4999278;28;20216;-68
2024/01/28 07:12:13;;;;;;;12.87;8.80;;;3.50;99.90;;;;;;4997549;28;20218;-68
2024/01/28 07:14:40;;;;;;;13.97;9.87;;;3.50;99.90;;;;;;4998448;28;20653;-68
2024/01/28 07:17:05;;;;;;;15.27;8.90;;;3.40;99.90;;;;;;5002441;28;20471;-68
2024/01/28 07:19:31;;;;;;;14.53;8.73;;;3.40;99.90;;;;;;4999269;28;21148;-68
2024/01/28 07:21:56;;;;;;;15.40;10.00;;;3.40;99.90;;;;;;4998791;28;20534;-68
2024/01/28 07:24:22;;;;;;;15.70;8.03;;;3.40;99.90;;;;;;5000384;28;20214;-68
2024/01/28 07:26:48;;;;;;;13.17;8.03;;;3.40;99.90;;;;;;4996302;28;20642;-68
2024/01/28 07:29:13;;;;;;;14.90;8.77;;;3.40;99.90;;;;;;4999216;28;20190;-68
2024/01/28 07:31:39;;;;;;;15.80;9.37;;;3.40;99.90;;;;;;5004629;28;20215;-68
2024/01/28 07:34:04;;;;;;;15.07;8.30;;;3.40;99.90;;;;;;4998719;28;20709;-69
2024/01/28 07:36:30;;;;;;;13.80;8.73;;;3.40;99.90;;;;;;4998037;28;20173;-68
2024/01/28 07:38:56;;;;;;;12.47;8.60;;;3.40;99.90;;;;;;4995770;28;20295;-68
2024/01/28 07:41:23;;;;;;;14.60;9.23;;;3.40;99.90;;;;;;4995267;28;20448;-68
2024/01/28 07:43:48;;;;;;;12.50;9.10;;;3.30;99.90;;;;;;4997733;28;20443;-68
2024/01/28 07:46:14;;;;;;;13.07;9.87;;;3.30;99.90;;;;;;4992792;28;20958;-68
2024/01/28 07:48:40;;;;;;;12.00;8.47;;;3.30;99.90;;;;;;4996684;28;20763;-68
2024/01/28 07:51:05;;;;;;;12.80;9.00;;;3.30;99.90;;;;;;4997215;28;20499;-68
2024/01/28 07:53:31;;;;;;;11.57;9.40;;;3.30;99.90;;;;;;4997631;28;20707;-68
2024/01/28 07:55:57;;;;;;;15.37;9.87;;;3.30;99.90;;;;;;5009740;28;20182;-68
2024/01/28 07:58:23;;;;;;;10.53;8.73;;;3.30;99.90;;;;;;4996555;28;20187;-68
2024/01/28 08:00:48;;;;;;;13.27;9.10;;;3.30;99.90;;;;;;4993849;28;20429;-68
2024/01/28 08:03:14;;;;;;;17.50;8.77;;;3.30;99.90;;;;;;4999127;28;20545;-68
2024/01/28 08:05:40;;;;;;;13.10;8.90;;;3.30;99.90;;;;;;4996907;28;20178;-68
2024/01/28 08:08:06;;;;;;;14.13;8.50;;;3.30;99.90;;;;;;4997445;28;20271;-68
2024/01/28 08:10:32;;;;;;;11.37;8.47;;;3.30;99.90;;;;;;4997386;28;20619;-68
2024/01/28 08:12:57;;;;;;;20.80;10.50;;;3.30;99.90;;;;;;4996581;28;20551;-68
2024/01/28 08:15:23;;;;;;;10.83;8.60;;;3.30;99.90;;;;;;4996578;28;20198;-68
2024/01/28 08:17:49;;;;;;;12.87;8.23;;;3.30;99.90;;;;;;4993425;28;20939;-68
2024/01/28 08:20:16;;;;;;;13.93;9.60;;;3.40;99.90;;;;;;4997595;28;20185;-68
2024/01/28 08:22:42;;;;;;;16.03;9.47;;;3.40;99.90;;;;;;5012773;28;20423;-68
2024/01/28 08:25:07;;;;;;;12.70;8.80;;;3.40;99.90;;;;;;5002254;28;20439;-69
2024/01/28 08:27:33;;;;;;;15.93;9.00;;;3.40;99.90;;;;;;4995965;28;20325;-68
2024/01/28 08:29:59;;;;;;;14.90;9.17;;;3.40;99.90;;;;;;4998229;28;20193;-68
2024/01/28 08:32:24;;;;;;;12.73;8.53;;;3.50;99.90;;;;;;5002224;28;20404;-68
2024/01/28 08:34:51;;;;;;;14.23;8.83;;;3.50;99.90;;;;;;5000839;28;20861;-68
2024/01/28 08:37:17;;;;;;;14.87;9.13;;;3.50;99.90;;;;;;5002611;28;20180;-68
2024/01/28 08:39:43;;;;;;;18.93;10.40;;;3.50;99.90;;;;;;4996988;28;20487;-68
2024/01/28 08:42:09;;;;;;;11.67;9.30;;;3.60;99.90;;;;;;4997333;28;20514;-68
2024/01/28 08:44:35;;;;;;;12.27;8.53;;;3.60;99.90;;;;;;5000774;28;20205;-68
2024/01/28 08:47:01;;;;;;;12.27;8.93;;;3.60;99.90;;;;;;5000183;28;20241;-68
2024/01/28 08:49:27;;;;;;;14.50;9.20;;;3.60;99.90;;;;;;4999492;28;20526;-68
2024/01/28 08:51:52;;;;;;;19.63;11.00;;;3.60;99.90;;;;;;4998921;28;20208;-68
2024/01/28 08:54:18;;;;;;;21.20;11.10;;;3.60;99.90;;;;;;4993229;28;20288;-68
2024/01/28 08:56:44;;;;;;;14.73;10.80;;;3.60;99.90;;;;;;4996909;28;20436;-68
2024/01/28 08:59:09;;;;;;;17.50;11.93;;;3.50;99.90;;;;;;5000276;28;20177;-68
2024/01/28 09:01:35;;;;;;;20.30;10.10;;;3.50;99.90;;;;;;5000358;28;20182;-68
2024/01/28 09:04:00;;;;;;;14.90;9.87;;;3.60;99.90;;;;;;4998754;28;20213;-68
2024/01/28 09:06:26;;;;;;;13.60;10.43;;;3.60;99.90;;;;;;5001761;28;20177;-68
2024/01/28 09:08:52;;;;;;;18.10;10.57;;;3.70;99.90;;;;;;5001332;28;20842;-68
2024/01/28 09:11:17;;;;;;;16.60;10.77;;;3.70;99.90;;;;;;4998600;28;20213;-68
2024/01/28 09:13:43;;;;;;;12.90;10.40;;;3.80;99.90;;;;;;4998842;28;20197;-67
2024/01/28 09:16:08;;;;;;;19.53;10.50;;;3.80;99.90;;;;;;4999653;28;20256;-67
2024/01/28 09:18:34;;;;;;;14.30;10.53;;;3.90;99.90;;;;;;4998953;28;20181;-67
2024/01/28 09:21:00;;;;;;;14.10;10.53;;;3.90;99.90;;;;;;4996923;28;20221;-68
2024/01/28 09:23:25;;;;;;;14.10;10.40;;;4.00;99.90;;;;;;5000258;28;20201;-68
2024/01/28 09:25:51;;;;;;;12.87;10.67;;;4.00;99.90;;;;;;4999849;28;20751;-68
2024/01/28 09:28:16;;;;;;;11.87;10.40;;;4.10;99.90;;;;;;4999778;28;20209;-69
2024/01/28 09:30:43;;;;;;;18.53;10.87;;;4.10;99.90;;;;;;5002348;28;20666;-68
2024/01/28 09:33:12;;;;;;;13.93;9.83;;;4.20;99.90;;;;;;5001122;28;20169;-68
2024/01/28 09:35:43;;;;;;;13.10;9.50;;;4.30;99.90;;;;;;4996347;28;20440;-69
2024/01/28 09:38:09;;;;;;;18.33;9.90;;;4.30;99.90;;;;;;5004112;28;20436;-68
2024/01/28 09:40:35;;;;;;;15.73;11.70;;;4.30;99.90;;;;;;4993310;28;20463;-68
2024/01/28 09:43:28;;;;;;;14.27;10.13;;;4.30;99.90;;;;;;5001259;28;20515;-68
2024/01/28 09:45:53;;;;;;;13.63;10.00;;;4.40;99.90;;;;;;5000209;28;20746;-69
2024/01/28 09:48:20;;;;;;;15.17;9.03;;;4.40;99.90;;;;;;5001413;28;20519;-68
2024/01/28 09:50:46;;;;;;;15.80;11.57;;;4.50;99.90;;;;;;4999844;28;20741;-68
2024/01/28 09:53:13;;;;;;;14.93;10.17;;;4.50;99.90;;;;;;4993520;28;20416;-69
2024/01/28 09:55:39;;;;;;;11.47;9.30;;;4.60;99.90;;;;;;4995850;28;20185;-69
2024/01/28 09:58:05;;;;;;;13.63;9.57;;;4.70;99.90;;;;;;4998600;28;20436;-69
2024/01/28 10:00:37;;;;;;;13.30;10.50;;;4.80;99.90;;;;;;4996602;28;20416;-68
2024/01/28 10:03:04;;;;;;;17.30;9.90;;;4.70;99.90;;;;;;5013945;28;20203;-69
2024/01/28 10:05:30;;;;;;;11.43;9.73;;;4.80;99.90;;;;;;4995103;28;20502;-68
2024/01/28 10:08:03;;;;;;;17.40;9.53;;;4.90;99.90;;;;;;4994169;28;20443;-67
2024/01/28 10:10:32;;;;;;;11.90;10.40;;;4.90;99.90;;;;;;5001926;28;20839;-69
2024/01/28 10:12:57;;;;;;;14.30;10.20;;;5.00;99.90;;;;;;4988383;28;20459;-68
2024/01/28 10:15:26;;;;;;;15.50;11.27;;;5.10;99.90;;;;;;5000466;28;20864;-67
2024/01/28 10:17:52;;;;;;;14.53;10.63;;;5.20;99.90;;;;;;5003007;28;20614;-68
2024/01/28 10:20:22;;;;;;;12.73;10.80;;;5.20;99.90;;;;;;5003018;28;20412;-67
2024/01/28 10:22:48;;;;;;;13.90;11.60;;;5.20;99.90;;;;;;4998688;28;20222;-68
2024/01/28 10:25:16;;;;;;;14.87;9.87;;;5.30;99.90;;;;;;4997904;28;20899;-68
2024/01/28 10:27:46;;;;;;;14.90;9.50;;;5.30;99.90;;;;;;4998473;28;20420;-67
2024/01/28 10:30:13;;;;;;;13.13;10.57;;;5.30;99.90;;;;;;5001517;28;20521;-67
2024/01/28 10:32:39;;;;;;;17.77;11.27;;;5.40;99.90;;;;;;5000288;28;20844;-67
2024/01/28 10:35:11;;;;;;;15.93;10.00;;;5.40;99.90;;;;;;4994831;28;20465;-68
2024/01/28 10:37:40;;;;;;;17.43;11.13;;;5.50;99.90;;;;;;4992536;28;20220;-68
2024/01/28 10:40:08;;;;;;;15.73;10.03;;;5.50;99.90;;;;;;4996891;28;20459;-68
2024/01/28 10:42:38;;;;;;;13.60;10.10;;;5.60;99.90;;;;;;4996693;28;20428;-69
2024/01/28 10:45:07;;;;;;;13.73;10.00;;;5.60;99.90;;;;;;4998445;28;20455;-68
2024/01/28 10:47:36;;;;;;;16.17;10.83;;;5.60;99.90;;;;;;4994304;28;20490;-68
2024/01/28 10:50:05;;;;;;;11.33;8.73;;;5.70;99.90;;;;;;4996897;28;20446;-68
2024/01/28 10:52:32;;;;;;;15.87;9.53;;;5.70;99.90;;;;;;4991556;28;20480;-68
2024/01/28 10:54:59;;;;;;;13.17;9.40;;;5.80;99.90;;;;;;4995159;28;20455;-68
2024/01/28 10:57:27;;;;;;;14.57;8.70;;;5.90;99.90;;;;;;4997459;28;20412;-68
2024/01/28 10:59:54;;;;;;;10.97;9.60;;;5.90;99.90;;;;;;4998003;28;20485;-68
2024/01/28 11:02:20;;;;;;;14.93;9.10;;;6.00;99.90;;;;;;4994165;28;20451;-68
2024/01/28 11:04:50;;;;;;;11.73;9.33;;;6.00;99.90;;;;;;5000155;28;20985;-68
2024/01/28 11:07:21;;;;;;;14.53;9.30;;;6.10;99.90;;;;;;4999204;28;20428;-68
2024/01/28 11:09:48;;;;;;;15.33;10.47;;;6.10;99.90;;;;;;4996394;28;20446;-68
2024/01/28 11:12:16;;;;;;;11.17;9.00;;;6.20;99.90;;;;;;4997715;28;20482;-70
2024/01/28 11:14:53;;;;;;;9.37;8.03;;;6.20;99.90;;;;;;4989125;28;20464;-68
2024/01/28 11:17:32;;;;;;;13.53;10.30;;;6.30;99.90;;;;;;4996786;28;20447;-69
2024/01/28 11:20:22;;;;;;;11.63;9.53;;;6.40;99.90;;;;;;4993866;28;20458;-68
2024/01/28 11:22:56;;;;;;;11.97;9.40;;;6.40;99.90;;;;;;5011497;28;20766;-69
2024/01/28 11:25:26;;;;;;;16.40;9.50;;;6.40;99.90;;;;;;5005371;28;20469;-68
2024/01/28 11:27:56;;;;;;;11.40;8.93;;;6.50;99.90;;;;;;5000379;28;20423;-69
2024/01/28 11:30:23;;;;;;;14.20;8.87;;;6.50;99.90;;;;;;5000103;28;20444;-69
2024/01/28 11:32:50;;;;;;;12.60;8.50;;;6.60;99.90;;;;;;4996830;28;20476;-69
2024/01/28 11:35:15;;;;;;;9.90;8.63;;;6.60;99.90;;;;;;4995584;28;20497;-69
2024/01/28 11:37:52;;;;;;;13.60;9.60;;;6.70;99.90;;;;;;4997281;28;20883;-69
2024/01/28 11:40:29;;;;;;;12.27;9.30;;;6.80;99.90;;;;;;4994610;28;20188;-67
2024/01/28 11:42:56;;;;;;;12.30;8.63;;;6.90;99.90;;;;;;4995436;28;20416;-68
2024/01/28 11:45:22;;;;;;;12.23;9.23;;;6.90;99.90;;;;;;4993303;28;20466;-68
2024/01/28 11:47:47;;;;;;;13.20;9.30;;;7.00;99.90;;;;;;5001277;28;20519;-69
2024/01/28 11:50:14;;;;;;;11.47;8.73;;;7.10;99.90;;;;;;4997719;28;20512;-68
2024/01/28 11:52:39;;;;;;;9.80;8.53;;;7.10;99.90;;;;;;5011412;28;20302;-68
2024/01/28 11:55:11;;;;;;;13.07;8.80;;;7.20;99.90;;;;;;4999727;28;20520;-68
2024/01/28 11:57:39;;;;;;;11.57;8.87;;;7.30;99.90;;;;;;5004009;28;20594;-69
2024/01/28 12:00:08;;;;;;;10.43;9.27;;;7.40;99.90;;;;;;4999157;28;20487;-69
2024/01/28 12:02:35;;;;;;;12.00;9.70;;;7.50;99.90;;;;;;5001547;28;20449;-69
2024/01/28 12:05:03;;;;;;;12.93;10.20;;;7.70;99.90;;;;;;5005611;28;20481;-69
2024/01/28 12:07:38;;;;;;;14.07;8.77;;;7.70;99.90;;;;;;5001338;28;20792;-69
2024/01/28 12:10:12;;;;;;;14.00;8.83;;;7.90;99.90;;;;;;5013920;28;20451;-69
2024/01/28 12:12:41;;;;;;;15.00;8.47;;;8.00;99.90;;;;;;4998012;28;20742;-69
2024/01/28 12:15:08;;;;;;;13.77;9.53;;;8.10;99.90;;;;;;4997150;28;20448;-69
2024/01/28 12:17:35;;;;;;;12.30;9.40;;;8.30;99.90;;;;;;5001250;28;20515;-69
2024/01/28 12:20:03;;;;;;;12.60;8.43;;;8.40;99.90;;;;;;4998796;28;20440;-69
2024/01/28 12:22:37;;;;;;;9.70;8.70;;;8.60;99.90;;;;;;4997714;28;20841;-69
2024/01/28 12:25:11;;;;;;;11.13;9.10;;;8.80;99.90;;;;;;5004005;28;20515;-68
2024/01/28 12:27:38;;;;;;;10.93;9.60;;;9.50;99.90;;;;;;5000819;28;20420;-68
2024/01/28 12:30:07;;;;;;;11.10;8.97;;;11.50;99.90;;;;;;5002464;28;20448;-69
2024/01/28 12:32:33;;;;;;;11.63;9.07;;;14.00;99.90;;;;;;4996667;28;20558;-68
2024/01/28 12:35:03;;;;;;;9.23;8.30;;;16.10;99.90;;;;;;5001066;28;20474;-69
2024/01/28 12:37:30;;;;;;;11.27;8.17;;;17.80;99.90;;;;;;5001202;28;20428;-69
2024/01/28 12:39:56;;;;;;;9.77;8.00;;;19.30;99.90;;;;;;4999341;28;20428;-69